sensor_id;sensor_type;location;lat;lon;timestamp;P1;durP1;ratioP1;P2;durP2;ratioP2
72325;SDS011;60278;47.980;18.780;2023-08-31T00:01:51;11.02;;;7.15;;
72325;SDS011;60278;47.980;18.780;2023-08-31T00:04:55;11.85;;;7.00;;
72325;SDS011;60278;47.980;18.780;2023-08-31T00:07:57;12.65;;;7.68;;
72325;SDS011;60278;47.980;18.780;2023-08-31T00:10:59;15.80;;;7.90;;
72325;SDS011;60278;47.980;18.780;2023-08-31T00:14:02;13.87;;;7.37;;
72325;SDS011;60278;47.980;18.780;2023-08-31T00:17:04;12.20;;;7.63;;
72325;SDS011;60278;47.980;18.780;2023-08-31T00:20:07;13.77;;;8.30;;
72325;SDS011;60278;47.980;18.780;2023-08-31T00:23:10;12.38;;;8.10;;
72325;SDS011;60278;47.980;18.780;2023-08-31T00:26:13;12.23;;;8.18;;
72325;SDS011;60278;47.980;18.780;2023-08-31T00:29:15;11.80;;;8.00;;
72325;SDS011;60278;47.980;18.780;2023-08-31T00:32:18;13.45;;;7.97;;
72325;SDS011;60278;47.980;18.780;2023-08-31T00:35:20;14.38;;;8.27;;
72325;SDS011;60278;47.980;18.780;2023-08-31T00:38:22;12.70;;;7.90;;
72325;SDS011;60278;47.980;18.780;2023-08-31T00:41:25;12.70;;;8.23;;
72325;SDS011;60278;47.980;18.780;2023-08-31T00:44:27;12.03;;;7.57;;
72325;SDS011;60278;47.980;18.780;2023-08-31T00:47:29;11.80;;;7.95;;
72325;SDS011;60278;47.980;18.780;2023-08-31T00:50:31;12.30;;;7.60;;
72325;SDS011;60278;47.980;18.780;2023-08-31T00:53:33;13.00;;;7.78;;
72325;SDS011;60278;47.980;18.780;2023-08-31T00:56:36;16.95;;;7.97;;
72325;SDS011;60278;47.980;18.780;2023-08-31T00:59:38;11.70;;;7.83;;
72325;SDS011;60278;47.980;18.780;2023-08-31T01:02:50;11.82;;;8.05;;
72325;SDS011;60278;47.980;18.780;2023-08-31T01:06:09;14.45;;;8.43;;
72325;SDS011;60278;47.980;18.780;2023-08-31T01:09:17;12.10;;;7.95;;
72325;SDS011;60278;47.980;18.780;2023-08-31T01:15:59;13.33;;;8.00;;
72325;SDS011;60278;47.980;18.780;2023-08-31T01:19:06;12.82;;;7.90;;
72325;SDS011;60278;47.980;18.780;2023-08-31T01:22:11;12.25;;;7.90;;
72325;SDS011;60278;47.980;18.780;2023-08-31T01:25:15;11.50;;;8.30;;
72325;SDS011;60278;47.980;18.780;2023-08-31T01:28:17;12.85;;;8.05;;
72325;SDS011;60278;47.980;18.780;2023-08-31T01:31:19;10.80;;;7.53;;
72325;SDS011;60278;47.980;18.780;2023-08-31T01:34:22;14.30;;;8.27;;
72325;SDS011;60278;47.980;18.780;2023-08-31T01:37:27;13.10;;;8.40;;
72325;SDS011;60278;47.980;18.780;2023-08-31T01:40:33;12.57;;;8.15;;
72325;SDS011;60278;47.980;18.780;2023-08-31T01:43:36;10.57;;;7.60;;
72325;SDS011;60278;47.980;18.780;2023-08-31T01:46:39;10.37;;;7.17;;
72325;SDS011;60278;47.980;18.780;2023-08-31T01:49:41;10.90;;;7.85;;
72325;SDS011;60278;47.980;18.780;2023-08-31T01:52:45;12.90;;;8.40;;
72325;SDS011;60278;47.980;18.780;2023-08-31T01:55:47;10.23;;;7.20;;
72325;SDS011;60278;47.980;18.780;2023-08-31T01:58:49;11.45;;;7.70;;
72325;SDS011;60278;47.980;18.780;2023-08-31T02:01:52;11.97;;;7.67;;
72325;SDS011;60278;47.980;18.780;2023-08-31T02:04:54;11.48;;;7.40;;
72325;SDS011;60278;47.980;18.780;2023-08-31T02:07:58;11.57;;;7.35;;
72325;SDS011;60278;47.980;18.780;2023-08-31T02:11:00;12.38;;;8.02;;
72325;SDS011;60278;47.980;18.780;2023-08-31T02:14:03;11.73;;;8.05;;
72325;SDS011;60278;47.980;18.780;2023-08-31T02:17:06;10.47;;;7.37;;
72325;SDS011;60278;47.980;18.780;2023-08-31T02:20:08;13.48;;;8.07;;
72325;SDS011;60278;47.980;18.780;2023-08-31T02:23:10;11.48;;;8.20;;
72325;SDS011;60278;47.980;18.780;2023-08-31T02:26:14;10.88;;;7.38;;
72325;SDS011;60278;47.980;18.780;2023-08-31T02:29:16;14.77;;;8.00;;
72325;SDS011;60278;47.980;18.780;2023-08-31T02:32:18;16.10;;;7.97;;
72325;SDS011;60278;47.980;18.780;2023-08-31T02:35:20;11.80;;;7.43;;
72325;SDS011;60278;47.980;18.780;2023-08-31T02:38:22;13.93;;;7.90;;
72325;SDS011;60278;47.980;18.780;2023-08-31T02:41:25;13.52;;;7.43;;
72325;SDS011;60278;47.980;18.780;2023-08-31T02:44:27;10.50;;;7.30;;
72325;SDS011;60278;47.980;18.780;2023-08-31T02:47:29;9.20;;;6.73;;
72325;SDS011;60278;47.980;18.780;2023-08-31T02:50:31;13.52;;;7.03;;
72325;SDS011;60278;47.980;18.780;2023-08-31T02:53:33;12.75;;;7.50;;
72325;SDS011;60278;47.980;18.780;2023-08-31T02:56:36;14.13;;;7.20;;
72325;SDS011;60278;47.980;18.780;2023-08-31T02:59:38;10.15;;;7.22;;
72325;SDS011;60278;47.980;18.780;2023-08-31T03:02:40;10.07;;;6.93;;
72325;SDS011;60278;47.980;18.780;2023-08-31T03:05:43;10.38;;;7.13;;
72325;SDS011;60278;47.980;18.780;2023-08-31T03:08:45;12.15;;;6.85;;
72325;SDS011;60278;47.980;18.780;2023-08-31T03:11:48;12.73;;;7.63;;
72325;SDS011;60278;47.980;18.780;2023-08-31T03:14:50;11.18;;;7.30;;
72325;SDS011;60278;47.980;18.780;2023-08-31T03:17:52;12.37;;;7.70;;
72325;SDS011;60278;47.980;18.780;2023-08-31T03:20:56;13.90;;;7.53;;
72325;SDS011;60278;47.980;18.780;2023-08-31T03:23:59;10.57;;;7.38;;
72325;SDS011;60278;47.980;18.780;2023-08-31T03:27:01;11.65;;;7.60;;
72325;SDS011;60278;47.980;18.780;2023-08-31T03:30:04;13.52;;;7.63;;
72325;SDS011;60278;47.980;18.780;2023-08-31T03:33:06;11.63;;;6.53;;
72325;SDS011;60278;47.980;18.780;2023-08-31T03:36:09;12.90;;;7.47;;
72325;SDS011;60278;47.980;18.780;2023-08-31T03:39:11;13.68;;;7.45;;
72325;SDS011;60278;47.980;18.780;2023-08-31T03:42:13;10.85;;;7.38;;
72325;SDS011;60278;47.980;18.780;2023-08-31T03:45:15;9.70;;;7.22;;
72325;SDS011;60278;47.980;18.780;2023-08-31T03:48:17;10.57;;;7.47;;
72325;SDS011;60278;47.980;18.780;2023-08-31T03:51:19;10.68;;;7.88;;
72325;SDS011;60278;47.980;18.780;2023-08-31T03:54:21;12.73;;;7.35;;
72325;SDS011;60278;47.980;18.780;2023-08-31T03:57:23;15.73;;;6.85;;
72325;SDS011;60278;47.980;18.780;2023-08-31T04:00:28;12.13;;;7.63;;
72325;SDS011;60278;47.980;18.780;2023-08-31T04:03:30;10.67;;;7.10;;
72325;SDS011;60278;47.980;18.780;2023-08-31T04:06:32;8.80;;;6.43;;
72325;SDS011;60278;47.980;18.780;2023-08-31T04:09:34;10.63;;;6.88;;
72325;SDS011;60278;47.980;18.780;2023-08-31T04:12:36;11.88;;;7.03;;
72325;SDS011;60278;47.980;18.780;2023-08-31T04:15:38;9.98;;;6.68;;
72325;SDS011;60278;47.980;18.780;2023-08-31T04:18:41;8.93;;;6.47;;
72325;SDS011;60278;47.980;18.780;2023-08-31T04:21:43;10.68;;;6.50;;
72325;SDS011;60278;47.980;18.780;2023-08-31T04:24:45;13.50;;;7.13;;
72325;SDS011;60278;47.980;18.780;2023-08-31T04:27:48;9.82;;;7.15;;
72325;SDS011;60278;47.980;18.780;2023-08-31T04:30:50;12.57;;;7.45;;
72325;SDS011;60278;47.980;18.780;2023-08-31T04:33:53;11.03;;;6.50;;
72325;SDS011;60278;47.980;18.780;2023-08-31T04:36:55;11.40;;;7.53;;
72325;SDS011;60278;47.980;18.780;2023-08-31T04:39:57;11.65;;;7.30;;
72325;SDS011;60278;47.980;18.780;2023-08-31T04:42:59;9.02;;;6.65;;
72325;SDS011;60278;47.980;18.780;2023-08-31T04:46:02;13.57;;;7.70;;
72325;SDS011;60278;47.980;18.780;2023-08-31T04:49:06;13.40;;;7.27;;
72325;SDS011;60278;47.980;18.780;2023-08-31T04:52:08;11.27;;;6.78;;
72325;SDS011;60278;47.980;18.780;2023-08-31T04:55:12;10.18;;;7.25;;
72325;SDS011;60278;47.980;18.780;2023-08-31T04:58:14;11.98;;;6.72;;
72325;SDS011;60278;47.980;18.780;2023-08-31T05:01:17;9.93;;;7.32;;
72325;SDS011;60278;47.980;18.780;2023-08-31T05:04:19;9.37;;;6.67;;
72325;SDS011;60278;47.980;18.780;2023-08-31T05:07:21;10.85;;;6.72;;
72325;SDS011;60278;47.980;18.780;2023-08-31T05:10:23;9.77;;;6.75;;
72325;SDS011;60278;47.980;18.780;2023-08-31T05:13:25;11.02;;;7.50;;
72325;SDS011;60278;47.980;18.780;2023-08-31T05:16:27;10.07;;;6.43;;
72325;SDS011;60278;47.980;18.780;2023-08-31T05:19:29;9.83;;;6.10;;
72325;SDS011;60278;47.980;18.780;2023-08-31T05:22:31;11.18;;;6.35;;
72325;SDS011;60278;47.980;18.780;2023-08-31T05:25:33;10.90;;;7.07;;
72325;SDS011;60278;47.980;18.780;2023-08-31T05:28:35;10.70;;;6.38;;
72325;SDS011;60278;47.980;18.780;2023-08-31T05:31:37;10.30;;;6.90;;
72325;SDS011;60278;47.980;18.780;2023-08-31T05:34:39;9.53;;;6.60;;
72325;SDS011;60278;47.980;18.780;2023-08-31T05:37:42;8.50;;;6.32;;
72325;SDS011;60278;47.980;18.780;2023-08-31T05:40:44;11.50;;;5.85;;
72325;SDS011;60278;47.980;18.780;2023-08-31T05:43:48;7.80;;;4.15;;
72325;SDS011;60278;47.980;18.780;2023-08-31T05:46:50;7.30;;;4.40;;
72325;SDS011;60278;47.980;18.780;2023-08-31T05:49:52;7.43;;;4.83;;
72325;SDS011;60278;47.980;18.780;2023-08-31T05:52:55;9.88;;;4.00;;
72325;SDS011;60278;47.980;18.780;2023-08-31T05:55:57;10.20;;;4.50;;
72325;SDS011;60278;47.980;18.780;2023-08-31T05:59:06;7.10;;;4.40;;
72325;SDS011;60278;47.980;18.780;2023-08-31T06:02:08;9.52;;;4.20;;
72325;SDS011;60278;47.980;18.780;2023-08-31T06:05:11;6.90;;;4.50;;
72325;SDS011;60278;47.980;18.780;2023-08-31T06:08:18;7.53;;;4.00;;
72325;SDS011;60278;47.980;18.780;2023-08-31T06:11:20;5.63;;;3.00;;
72325;SDS011;60278;47.980;18.780;2023-08-31T06:14:23;7.57;;;4.45;;
72325;SDS011;60278;47.980;18.780;2023-08-31T06:17:25;7.97;;;3.40;;
72325;SDS011;60278;47.980;18.780;2023-08-31T06:20:27;9.33;;;4.10;;
72325;SDS011;60278;47.980;18.780;2023-08-31T06:23:29;5.95;;;3.08;;
72325;SDS011;60278;47.980;18.780;2023-08-31T06:26:31;6.25;;;4.07;;
72325;SDS011;60278;47.980;18.780;2023-08-31T06:29:33;5.75;;;3.20;;
72325;SDS011;60278;47.980;18.780;2023-08-31T06:32:35;7.20;;;3.28;;
72325;SDS011;60278;47.980;18.780;2023-08-31T06:35:37;7.17;;;4.13;;
72325;SDS011;60278;47.980;18.780;2023-08-31T06:38:39;5.20;;;2.97;;
72325;SDS011;60278;47.980;18.780;2023-08-31T06:41:42;8.02;;;4.05;;
72325;SDS011;60278;47.980;18.780;2023-08-31T06:44:44;9.18;;;4.10;;
72325;SDS011;60278;47.980;18.780;2023-08-31T06:47:46;8.68;;;3.83;;
72325;SDS011;60278;47.980;18.780;2023-08-31T06:50:49;11.13;;;4.97;;
72325;SDS011;60278;47.980;18.780;2023-08-31T06:53:51;11.60;;;4.28;;
72325;SDS011;60278;47.980;18.780;2023-08-31T06:56:53;7.95;;;3.42;;
72325;SDS011;60278;47.980;18.780;2023-08-31T06:59:55;13.68;;;3.65;;
72325;SDS011;60278;47.980;18.780;2023-08-31T07:02:57;12.48;;;4.47;;
72325;SDS011;60278;47.980;18.780;2023-08-31T07:06:00;9.63;;;3.10;;
72325;SDS011;60278;47.980;18.780;2023-08-31T07:09:02;8.82;;;3.70;;
72325;SDS011;60278;47.980;18.780;2023-08-31T07:12:08;7.30;;;3.25;;
72325;SDS011;60278;47.980;18.780;2023-08-31T07:15:10;6.97;;;3.83;;
72325;SDS011;60278;47.980;18.780;2023-08-31T07:18:12;7.68;;;3.40;;
72325;SDS011;60278;47.980;18.780;2023-08-31T07:21:14;8.77;;;3.20;;
72325;SDS011;60278;47.980;18.780;2023-08-31T07:24:16;8.18;;;3.38;;
72325;SDS011;60278;47.980;18.780;2023-08-31T07:27:19;9.40;;;3.08;;
72325;SDS011;60278;47.980;18.780;2023-08-31T07:30:21;7.93;;;3.00;;
72325;SDS011;60278;47.980;18.780;2023-08-31T07:33:23;6.90;;;3.28;;
72325;SDS011;60278;47.980;18.780;2023-08-31T07:36:32;6.47;;;3.30;;
72325;SDS011;60278;47.980;18.780;2023-08-31T07:39:34;5.97;;;3.55;;
72325;SDS011;60278;47.980;18.780;2023-08-31T07:42:36;7.97;;;2.97;;
72325;SDS011;60278;47.980;18.780;2023-08-31T07:45:38;6.13;;;3.28;;
72325;SDS011;60278;47.980;18.780;2023-08-31T07:48:41;7.20;;;3.38;;
72325;SDS011;60278;47.980;18.780;2023-08-31T07:51:43;10.87;;;3.20;;
72325;SDS011;60278;47.980;18.780;2023-08-31T07:54:45;6.15;;;3.63;;
72325;SDS011;60278;47.980;18.780;2023-08-31T07:57:47;7.10;;;3.72;;
72325;SDS011;60278;47.980;18.780;2023-08-31T08:00:52;6.30;;;3.30;;
72325;SDS011;60278;47.980;18.780;2023-08-31T08:03:54;7.03;;;3.42;;
72325;SDS011;60278;47.980;18.780;2023-08-31T08:06:56;5.40;;;3.10;;
72325;SDS011;60278;47.980;18.780;2023-08-31T08:09:59;5.30;;;2.90;;
72325;SDS011;60278;47.980;18.780;2023-08-31T08:13:01;6.28;;;2.80;;
72325;SDS011;60278;47.980;18.780;2023-08-31T08:16:03;8.07;;;3.00;;
72325;SDS011;60278;47.980;18.780;2023-08-31T08:19:06;7.07;;;2.92;;
72325;SDS011;60278;47.980;18.780;2023-08-31T08:22:08;7.47;;;3.93;;
72325;SDS011;60278;47.980;18.780;2023-08-31T08:25:10;4.65;;;2.70;;
72325;SDS011;60278;47.980;18.780;2023-08-31T08:28:12;7.18;;;2.85;;
72325;SDS011;60278;47.980;18.780;2023-08-31T08:31:14;6.88;;;3.20;;
72325;SDS011;60278;47.980;18.780;2023-08-31T08:34:16;6.63;;;3.17;;
72325;SDS011;60278;47.980;18.780;2023-08-31T08:37:18;6.97;;;2.80;;
72325;SDS011;60278;47.980;18.780;2023-08-31T08:40:21;11.57;;;3.38;;
72325;SDS011;60278;47.980;18.780;2023-08-31T08:43:26;6.18;;;3.20;;
72325;SDS011;60278;47.980;18.780;2023-08-31T08:46:30;5.38;;;3.03;;
72325;SDS011;60278;47.980;18.780;2023-08-31T08:49:33;5.43;;;3.00;;
72325;SDS011;60278;47.980;18.780;2023-08-31T08:52:35;8.30;;;3.00;;
72325;SDS011;60278;47.980;18.780;2023-08-31T08:55:37;5.20;;;2.90;;
72325;SDS011;60278;47.980;18.780;2023-08-31T08:58:39;5.03;;;2.67;;
72325;SDS011;60278;47.980;18.780;2023-08-31T09:01:43;11.85;;;2.63;;
72325;SDS011;60278;47.980;18.780;2023-08-31T09:04:45;4.80;;;2.25;;
72325;SDS011;60278;47.980;18.780;2023-08-31T09:08:06;5.80;;;2.60;;
72325;SDS011;60278;47.980;18.780;2023-08-31T09:11:20;8.27;;;2.75;;
72325;SDS011;60278;47.980;18.780;2023-08-31T09:14:24;6.55;;;2.70;;
72325;SDS011;60278;47.980;18.780;2023-08-31T09:17:26;7.75;;;2.95;;
72325;SDS011;60278;47.980;18.780;2023-08-31T09:20:29;7.43;;;2.25;;
72325;SDS011;60278;47.980;18.780;2023-08-31T09:23:31;6.93;;;2.57;;
72325;SDS011;60278;47.980;18.780;2023-08-31T09:26:37;5.28;;;2.28;;
72325;SDS011;60278;47.980;18.780;2023-08-31T09:29:44;5.60;;;2.38;;
72325;SDS011;60278;47.980;18.780;2023-08-31T09:32:52;6.60;;;2.50;;
72325;SDS011;60278;47.980;18.780;2023-08-31T09:35:59;5.43;;;2.38;;
72325;SDS011;60278;47.980;18.780;2023-08-31T09:39:06;5.97;;;2.80;;
72325;SDS011;60278;47.980;18.780;2023-08-31T09:42:10;4.32;;;2.40;;
72325;SDS011;60278;47.980;18.780;2023-08-31T09:45:12;9.93;;;2.75;;
72325;SDS011;60278;47.980;18.780;2023-08-31T09:48:16;9.50;;;3.13;;
72325;SDS011;60278;47.980;18.780;2023-08-31T09:51:18;7.68;;;3.20;;
72325;SDS011;60278;47.980;18.780;2023-08-31T09:54:24;10.50;;;3.00;;
72325;SDS011;60278;47.980;18.780;2023-08-31T09:57:28;19.63;;;5.55;;
72325;SDS011;60278;47.980;18.780;2023-08-31T10:00:48;10.90;;;3.35;;
72325;SDS011;60278;47.980;18.780;2023-08-31T10:03:51;8.07;;;2.70;;
72325;SDS011;60278;47.980;18.780;2023-08-31T10:06:53;6.90;;;2.60;;
72325;SDS011;60278;47.980;18.780;2023-08-31T10:09:55;5.10;;;2.80;;
72325;SDS011;60278;47.980;18.780;2023-08-31T10:12:59;5.22;;;2.20;;
72325;SDS011;60278;47.980;18.780;2023-08-31T10:16:02;5.90;;;2.70;;
72325;SDS011;60278;47.980;18.780;2023-08-31T10:19:06;6.13;;;2.33;;
72325;SDS011;60278;47.980;18.780;2023-08-31T10:22:08;8.55;;;3.13;;
72325;SDS011;60278;47.980;18.780;2023-08-31T10:25:10;4.60;;;2.47;;
72325;SDS011;60278;47.980;18.780;2023-08-31T10:28:38;5.80;;;2.53;;
72325;SDS011;60278;47.980;18.780;2023-08-31T10:31:36;5.03;;;3.22;;
72325;SDS011;60278;47.980;18.780;2023-08-31T10:34:39;4.60;;;2.70;;
72325;SDS011;60278;47.980;18.780;2023-08-31T10:37:41;5.85;;;2.67;;
72325;SDS011;60278;47.980;18.780;2023-08-31T10:40:59;5.57;;;2.73;;
72325;SDS011;60278;47.980;18.780;2023-08-31T10:44:01;9.13;;;2.83;;
72325;SDS011;60278;47.980;18.780;2023-08-31T10:47:03;5.55;;;2.72;;
72325;SDS011;60278;47.980;18.780;2023-08-31T10:50:19;4.60;;;2.40;;
72325;SDS011;60278;47.980;18.780;2023-08-31T10:53:27;4.88;;;2.53;;
72325;SDS011;60278;47.980;18.780;2023-08-31T10:56:29;5.40;;;2.70;;
72325;SDS011;60278;47.980;18.780;2023-08-31T10:59:41;6.00;;;2.55;;
72325;SDS011;60278;47.980;18.780;2023-08-31T11:02:44;4.45;;;2.78;;
72325;SDS011;60278;47.980;18.780;2023-08-31T11:05:52;7.10;;;2.88;;
72325;SDS011;60278;47.980;18.780;2023-08-31T11:08:54;4.97;;;2.72;;
72325;SDS011;60278;47.980;18.780;2023-08-31T11:11:56;7.17;;;2.53;;
72325;SDS011;60278;47.980;18.780;2023-08-31T11:14:59;6.82;;;2.30;;
72325;SDS011;60278;47.980;18.780;2023-08-31T11:18:01;7.63;;;2.97;;
72325;SDS011;60278;47.980;18.780;2023-08-31T11:21:03;6.03;;;2.60;;
72325;SDS011;60278;47.980;18.780;2023-08-31T11:24:07;7.50;;;3.08;;
72325;SDS011;60278;47.980;18.780;2023-08-31T11:27:10;6.30;;;2.33;;
72325;SDS011;60278;47.980;18.780;2023-08-31T11:30:13;4.57;;;1.92;;
72325;SDS011;60278;47.980;18.780;2023-08-31T11:33:15;6.88;;;2.50;;
72325;SDS011;60278;47.980;18.780;2023-08-31T11:36:18;6.53;;;2.20;;
72325;SDS011;60278;47.980;18.780;2023-08-31T11:39:20;5.40;;;2.17;;
72325;SDS011;60278;47.980;18.780;2023-08-31T11:42:22;6.03;;;2.43;;
72325;SDS011;60278;47.980;18.780;2023-08-31T11:45:25;18.83;;;3.10;;
72325;SDS011;60278;47.980;18.780;2023-08-31T11:48:28;6.97;;;2.30;;
72325;SDS011;60278;47.980;18.780;2023-08-31T11:51:31;5.68;;;1.80;;
72325;SDS011;60278;47.980;18.780;2023-08-31T11:54:36;7.82;;;2.05;;
72325;SDS011;60278;47.980;18.780;2023-08-31T11:57:38;10.43;;;2.50;;
72325;SDS011;60278;47.980;18.780;2023-08-31T12:00:42;6.15;;;2.47;;
72325;SDS011;60278;47.980;18.780;2023-08-31T12:03:44;5.68;;;2.08;;
72325;SDS011;60278;47.980;18.780;2023-08-31T12:06:52;5.97;;;1.80;;
72325;SDS011;60278;47.980;18.780;2023-08-31T12:10:01;4.18;;;1.83;;
72325;SDS011;60278;47.980;18.780;2023-08-31T12:13:09;3.97;;;1.90;;
72325;SDS011;60278;47.980;18.780;2023-08-31T12:16:13;3.65;;;2.00;;
72325;SDS011;60278;47.980;18.780;2023-08-31T12:19:16;5.60;;;2.38;;
72325;SDS011;60278;47.980;18.780;2023-08-31T12:22:18;3.80;;;2.08;;
72325;SDS011;60278;47.980;18.780;2023-08-31T12:25:20;4.22;;;2.10;;
72325;SDS011;60278;47.980;18.780;2023-08-31T12:28:25;6.97;;;2.10;;
72325;SDS011;60278;47.980;18.780;2023-08-31T12:31:27;3.53;;;2.00;;
72325;SDS011;60278;47.980;18.780;2023-08-31T12:34:29;4.13;;;2.28;;
72325;SDS011;60278;47.980;18.780;2023-08-31T12:37:33;5.53;;;2.20;;
72325;SDS011;60278;47.980;18.780;2023-08-31T12:40:35;4.35;;;2.00;;
72325;SDS011;60278;47.980;18.780;2023-08-31T12:43:37;4.63;;;2.20;;
72325;SDS011;60278;47.980;18.780;2023-08-31T12:46:40;25.20;;;3.08;;
72325;SDS011;60278;47.980;18.780;2023-08-31T12:49:42;55.13;;;5.53;;
72325;SDS011;60278;47.980;18.780;2023-08-31T12:52:45;45.05;;;4.22;;
72325;SDS011;60278;47.980;18.780;2023-08-31T12:55:48;41.38;;;4.25;;
72325;SDS011;60278;47.980;18.780;2023-08-31T12:58:52;62.10;;;6.73;;
72325;SDS011;60278;47.980;18.780;2023-08-31T13:01:54;77.47;;;8.50;;
72325;SDS011;60278;47.980;18.780;2023-08-31T13:04:57;65.80;;;7.40;;
72325;SDS011;60278;47.980;18.780;2023-08-31T13:07:59;20.13;;;3.22;;
72325;SDS011;60278;47.980;18.780;2023-08-31T13:11:01;56.85;;;6.65;;
72325;SDS011;60278;47.980;18.780;2023-08-31T13:14:05;25.57;;;3.43;;
72325;SDS011;60278;47.980;18.780;2023-08-31T13:17:07;11.60;;;2.60;;
72325;SDS011;60278;47.980;18.780;2023-08-31T13:20:10;19.50;;;3.70;;
72325;SDS011;60278;47.980;18.780;2023-08-31T13:23:12;17.80;;;3.65;;
72325;SDS011;60278;47.980;18.780;2023-08-31T13:26:14;18.13;;;2.90;;
72325;SDS011;60278;47.980;18.780;2023-08-31T13:29:16;14.90;;;3.20;;
72325;SDS011;60278;47.980;18.780;2023-08-31T13:32:18;16.08;;;3.60;;
72325;SDS011;60278;47.980;18.780;2023-08-31T13:35:20;13.52;;;3.10;;
72325;SDS011;60278;47.980;18.780;2023-08-31T13:38:22;4.85;;;2.10;;
72325;SDS011;60278;47.980;18.780;2023-08-31T13:41:24;8.32;;;2.42;;
72325;SDS011;60278;47.980;18.780;2023-08-31T13:44:27;6.77;;;2.07;;
72325;SDS011;60278;47.980;18.780;2023-08-31T13:47:29;3.35;;;1.83;;
72325;SDS011;60278;47.980;18.780;2023-08-31T13:50:31;3.42;;;1.90;;
72325;SDS011;60278;47.980;18.780;2023-08-31T13:53:33;5.47;;;1.85;;
72325;SDS011;60278;47.980;18.780;2023-08-31T13:56:36;3.88;;;2.00;;
72325;SDS011;60278;47.980;18.780;2023-08-31T13:59:38;3.30;;;1.50;;
72325;SDS011;60278;47.980;18.780;2023-08-31T14:02:41;6.20;;;1.88;;
72325;SDS011;60278;47.980;18.780;2023-08-31T14:05:47;4.20;;;1.90;;
72325;SDS011;60278;47.980;18.780;2023-08-31T14:08:49;4.78;;;2.00;;
72325;SDS011;60278;47.980;18.780;2023-08-31T14:11:51;3.90;;;2.10;;
72325;SDS011;60278;47.980;18.780;2023-08-31T14:14:53;3.57;;;1.60;;
72325;SDS011;60278;47.980;18.780;2023-08-31T14:17:56;4.18;;;2.10;;
72325;SDS011;60278;47.980;18.780;2023-08-31T14:20:59;5.38;;;1.88;;
72325;SDS011;60278;47.980;18.780;2023-08-31T14:24:02;4.68;;;1.90;;
72325;SDS011;60278;47.980;18.780;2023-08-31T14:27:06;4.53;;;1.95;;
72325;SDS011;60278;47.980;18.780;2023-08-31T14:30:08;3.93;;;1.70;;
72325;SDS011;60278;47.980;18.780;2023-08-31T14:33:10;4.78;;;1.80;;
72325;SDS011;60278;47.980;18.780;2023-08-31T14:36:13;3.72;;;1.95;;
72325;SDS011;60278;47.980;18.780;2023-08-31T14:39:16;4.95;;;2.15;;
72325;SDS011;60278;47.980;18.780;2023-08-31T14:42:18;4.45;;;2.00;;
72325;SDS011;60278;47.980;18.780;2023-08-31T14:45:22;3.70;;;1.80;;
72325;SDS011;60278;47.980;18.780;2023-08-31T14:48:24;3.25;;;1.80;;
72325;SDS011;60278;47.980;18.780;2023-08-31T14:51:27;3.65;;;2.08;;
72325;SDS011;60278;47.980;18.780;2023-08-31T14:54:29;6.13;;;1.80;;
72325;SDS011;60278;47.980;18.780;2023-08-31T14:57:32;6.38;;;2.00;;
72325;SDS011;60278;47.980;18.780;2023-08-31T15:00:34;4.10;;;2.00;;
72325;SDS011;60278;47.980;18.780;2023-08-31T15:03:36;6.70;;;2.33;;
72325;SDS011;60278;47.980;18.780;2023-08-31T15:06:38;5.05;;;1.65;;
72325;SDS011;60278;47.980;18.780;2023-08-31T15:09:40;5.35;;;2.15;;
72325;SDS011;60278;47.980;18.780;2023-08-31T15:12:43;3.80;;;1.98;;
72325;SDS011;60278;47.980;18.780;2023-08-31T15:15:45;4.90;;;1.90;;
72325;SDS011;60278;47.980;18.780;2023-08-31T15:18:47;5.35;;;2.00;;
72325;SDS011;60278;47.980;18.780;2023-08-31T15:21:49;4.95;;;2.00;;
72325;SDS011;60278;47.980;18.780;2023-08-31T15:24:51;3.45;;;1.70;;
72325;SDS011;60278;47.980;18.780;2023-08-31T15:27:54;3.28;;;1.73;;
72325;SDS011;60278;47.980;18.780;2023-08-31T15:30:56;4.70;;;1.57;;
72325;SDS011;60278;47.980;18.780;2023-08-31T15:33:58;4.60;;;1.70;;
72325;SDS011;60278;47.980;18.780;2023-08-31T15:37:00;3.83;;;1.50;;
72325;SDS011;60278;47.980;18.780;2023-08-31T15:40:03;4.43;;;1.63;;
72325;SDS011;60278;47.980;18.780;2023-08-31T15:43:05;3.33;;;1.60;;
72325;SDS011;60278;47.980;18.780;2023-08-31T15:46:07;3.03;;;1.40;;
72325;SDS011;60278;47.980;18.780;2023-08-31T15:49:09;3.60;;;1.50;;
72325;SDS011;60278;47.980;18.780;2023-08-31T15:52:11;4.47;;;1.50;;
72325;SDS011;60278;47.980;18.780;2023-08-31T15:55:13;3.10;;;1.52;;
72325;SDS011;60278;47.980;18.780;2023-08-31T15:58:16;4.78;;;1.60;;
72325;SDS011;60278;47.980;18.780;2023-08-31T16:01:18;4.67;;;1.40;;
72325;SDS011;60278;47.980;18.780;2023-08-31T16:04:20;7.85;;;1.60;;
72325;SDS011;60278;47.980;18.780;2023-08-31T16:07:22;3.53;;;1.55;;
72325;SDS011;60278;47.980;18.780;2023-08-31T16:10:24;2.97;;;1.35;;
72325;SDS011;60278;47.980;18.780;2023-08-31T16:13:26;3.08;;;1.50;;
72325;SDS011;60278;47.980;18.780;2023-08-31T16:16:29;2.97;;;1.40;;
72325;SDS011;60278;47.980;18.780;2023-08-31T16:19:33;4.05;;;1.83;;
72325;SDS011;60278;47.980;18.780;2023-08-31T16:22:36;5.47;;;1.35;;
72325;SDS011;60278;47.980;18.780;2023-08-31T16:25:39;4.90;;;1.33;;
72325;SDS011;60278;47.980;18.780;2023-08-31T16:28:41;3.67;;;1.40;;
72325;SDS011;60278;47.980;18.780;2023-08-31T16:31:43;4.97;;;1.37;;
72325;SDS011;60278;47.980;18.780;2023-08-31T16:34:46;3.50;;;1.60;;
72325;SDS011;60278;47.980;18.780;2023-08-31T16:37:48;3.55;;;1.88;;
72325;SDS011;60278;47.980;18.780;2023-08-31T16:40:50;2.85;;;1.35;;
72325;SDS011;60278;47.980;18.780;2023-08-31T16:43:53;5.45;;;1.60;;
72325;SDS011;60278;47.980;18.780;2023-08-31T16:46:57;3.30;;;1.23;;
72325;SDS011;60278;47.980;18.780;2023-08-31T16:49:59;3.20;;;1.30;;
72325;SDS011;60278;47.980;18.780;2023-08-31T16:53:04;6.03;;;2.00;;
72325;SDS011;60278;47.980;18.780;2023-08-31T16:56:06;3.30;;;1.63;;
72325;SDS011;60278;47.980;18.780;2023-08-31T16:59:08;3.85;;;1.83;;
72325;SDS011;60278;47.980;18.780;2023-08-31T17:02:11;3.80;;;1.70;;
72325;SDS011;60278;47.980;18.780;2023-08-31T17:05:13;3.17;;;1.73;;
72325;SDS011;60278;47.980;18.780;2023-08-31T17:08:16;4.05;;;1.70;;
72325;SDS011;60278;47.980;18.780;2023-08-31T17:11:18;3.42;;;1.42;;
72325;SDS011;60278;47.980;18.780;2023-08-31T17:14:20;6.50;;;1.83;;
72325;SDS011;60278;47.980;18.780;2023-08-31T17:17:22;5.83;;;1.80;;
72325;SDS011;60278;47.980;18.780;2023-08-31T17:20:27;6.03;;;2.03;;
72325;SDS011;60278;47.980;18.780;2023-08-31T17:23:32;4.90;;;2.30;;
72325;SDS011;60278;47.980;18.780;2023-08-31T17:26:34;4.35;;;2.30;;
72325;SDS011;60278;47.980;18.780;2023-08-31T17:29:37;3.90;;;1.90;;
72325;SDS011;60278;47.980;18.780;2023-08-31T17:32:39;3.97;;;1.70;;
72325;SDS011;60278;47.980;18.780;2023-08-31T17:35:41;2.83;;;1.55;;
72325;SDS011;60278;47.980;18.780;2023-08-31T17:38:44;6.40;;;2.00;;
72325;SDS011;60278;47.980;18.780;2023-08-31T17:41:47;5.72;;;1.70;;
72325;SDS011;60278;47.980;18.780;2023-08-31T17:44:49;4.40;;;1.92;;
72325;SDS011;60278;47.980;18.780;2023-08-31T17:47:51;6.10;;;2.30;;
72325;SDS011;60278;47.980;18.780;2023-08-31T17:50:53;6.05;;;2.22;;
72325;SDS011;60278;47.980;18.780;2023-08-31T17:53:55;5.78;;;2.20;;
72325;SDS011;60278;47.980;18.780;2023-08-31T17:57:01;4.05;;;2.20;;
72325;SDS011;60278;47.980;18.780;2023-08-31T18:00:04;5.47;;;2.10;;
72325;SDS011;60278;47.980;18.780;2023-08-31T18:03:09;7.13;;;2.07;;
72325;SDS011;60278;47.980;18.780;2023-08-31T18:06:12;4.80;;;2.05;;